Time;durP1;ratioP1;P1;durP2;ratioP2;P2;SDS_P1;SDS_P2;PMS_P1;PMS_P2;Temp;Humidity;BMP_temperature;BMP_pressure;BME280_temperature;BME280_humidity;BME280_pressure;Samples;Min_cycle;Max_cycle;Signal;HPM_P1;HPM_P2
2023/07/19 00:01:50;;;;;;;5.72;2.17;;;18.90;99.90;;;;;;5132114;28;20030;-71
2023/07/19 00:04:16;;;;;;;6.78;1.90;;;18.90;99.90;;;;;;5118478;28;20015;-69
2023/07/19 00:06:41;;;;;;;5.25;1.98;;;18.80;99.90;;;;;;5119539;28;20024;-70
2023/07/19 00:09:07;;;;;;;7.70;2.22;;;18.80;99.90;;;;;;5132283;28;20046;-70
2023/07/19 00:11:33;;;;;;;3.47;1.88;;;18.80;99.90;;;;;;5132476;28;20030;-70
2023/07/19 00:13:58;;;;;;;4.95;2.15;;;18.80;99.90;;;;;;5132054;28;20023;-70
2023/07/19 00:16:24;;;;;;;7.60;2.25;;;18.70;99.90;;;;;;5132225;28;20116;-73
2023/07/19 00:18:50;;;;;;;7.13;2.50;;;18.70;99.90;;;;;;5132111;28;20039;-71
2023/07/19 00:21:15;;;;;;;6.07;2.53;;;18.80;99.90;;;;;;5113698;28;20027;-71
2023/07/19 00:23:42;;;;;;;6.18;2.30;;;18.70;99.90;;;;;;5126502;28;20487;-72
2023/07/19 00:26:08;;;;;;;7.25;2.30;;;18.70;99.90;;;;;;5130502;28;20055;-71
2023/07/19 00:28:33;;;;;;;7.20;2.35;;;18.70;99.90;;;;;;5132091;28;20259;-71
2023/07/19 00:31:01;;;;;;;4.50;2.47;;;18.70;99.90;;;;;;5113122;28;20054;-71
2023/07/19 00:33:27;;;;;;;7.45;2.88;;;18.70;99.90;;;;;;5132091;28;20020;-70
2023/07/19 00:35:53;;;;;;;7.63;2.80;;;18.70;99.90;;;;;;5131645;28;20110;-70
2023/07/19 00:38:18;;;;;;;7.00;2.45;;;18.70;99.90;;;;;;5125248;28;20016;-70
2023/07/19 00:40:44;;;;;;;7.05;2.15;;;18.70;99.90;;;;;;5127150;27;20145;-71
2023/07/19 00:43:10;;;;;;;7.47;3.05;;;18.70;99.90;;;;;;5134270;27;20015;-72
2023/07/19 00:45:37;;;;;;;7.68;3.30;;;18.70;99.90;;;;;;5098193;28;20391;-71
2023/07/19 00:48:02;;;;;;;9.50;2.67;;;18.70;99.90;;;;;;5126638;27;20114;-70
2023/07/19 00:50:28;;;;;;;6.82;2.90;;;18.70;99.90;;;;;;5123737;27;20102;-71
2023/07/19 00:52:54;;;;;;;6.70;2.67;;;18.70;99.90;;;;;;5133099;27;20524;-71
2023/07/19 00:55:20;;;;;;;12.65;3.42;;;18.70;99.90;;;;;;5132566;27;20106;-71
2023/07/19 00:57:46;;;;;;;8.30;3.38;;;18.70;99.90;;;;;;5127023;27;20020;-71
2023/07/19 01:00:12;;;;;;;8.23;3.60;;;18.70;99.90;;;;;;5111277;27;20030;-71
2023/07/19 01:02:38;;;;;;;9.15;3.78;;;18.60;99.90;;;;;;5126230;27;20033;-72
2023/07/19 01:05:04;;;;;;;10.70;3.50;;;18.70;99.90;;;;;;5135260;27;20030;-71
2023/07/19 01:07:30;;;;;;;9.15;3.45;;;18.70;99.90;;;;;;5130491;27;20019;-72
2023/07/19 01:09:56;;;;;;;7.75;3.22;;;18.70;99.90;;;;;;5130945;27;20470;-70
2023/07/19 01:12:21;;;;;;;7.95;3.38;;;18.60;99.90;;;;;;5135256;27;20371;-71
2023/07/19 01:14:47;;;;;;;8.25;3.83;;;18.60;99.90;;;;;;5109680;27;20083;-71
2023/07/19 01:17:13;;;;;;;9.05;3.38;;;18.60;99.90;;;;;;5126488;27;20084;-71
2023/07/19 01:19:38;;;;;;;9.65;3.97;;;18.60;99.90;;;;;;5130860;27;20070;-71
2023/07/19 01:22:05;;;;;;;7.70;3.17;;;18.60;99.90;;;;;;5135444;27;20023;-71
2023/07/19 01:24:31;;;;;;;9.35;3.15;;;18.60;99.90;;;;;;5134674;27;20436;-70
2023/07/19 01:26:56;;;;;;;8.68;3.15;;;18.60;99.90;;;;;;5125155;27;20140;-70
2023/07/19 01:29:22;;;;;;;9.60;3.10;;;18.60;99.90;;;;;;5118634;27;20015;-70
2023/07/19 01:31:48;;;;;;;8.18;3.00;;;18.60;99.90;;;;;;5134955;27;20685;-71
2023/07/19 01:34:13;;;;;;;7.30;2.80;;;18.60;99.90;;;;;;5134900;27;20460;-71
2023/07/19 01:36:39;;;;;;;7.28;2.95;;;18.60;99.90;;;;;;5134813;27;20026;-71
2023/07/19 01:39:04;;;;;;;7.30;3.10;;;18.60;99.90;;;;;;5133578;27;20015;-71
2023/07/19 01:41:30;;;;;;;6.93;2.65;;;18.60;99.90;;;;;;5133632;27;20051;-71
2023/07/19 01:43:56;;;;;;;7.57;2.50;;;18.60;99.90;;;;;;5134735;27;20027;-71
2023/07/19 01:46:21;;;;;;;5.90;2.45;;;18.60;99.90;;;;;;5134539;27;20055;-71
2023/07/19 01:48:47;;;;;;;8.63;2.70;;;18.60;99.90;;;;;;5131504;27;20027;-71
2023/07/19 01:51:13;;;;;;;5.38;2.60;;;18.60;99.90;;;;;;5133997;27;20499;-71
2023/07/19 01:53:38;;;;;;;10.85;2.92;;;18.60;99.90;;;;;;5125425;27;20066;-71
2023/07/19 01:56:04;;;;;;;7.50;2.63;;;18.60;99.90;;;;;;5134342;27;20023;-71
2023/07/19 01:58:29;;;;;;;7.38;2.47;;;18.60;99.90;;;;;;5134611;27;20099;-71
2023/07/19 02:00:55;;;;;;;7.38;2.70;;;18.70;99.90;;;;;;5133577;27;20537;-71
2023/07/19 02:03:21;;;;;;;5.45;2.47;;;18.60;99.90;;;;;;5134044;27;20023;-70
2023/07/19 02:05:59;;;;;;;5.47;2.40;;;18.60;99.90;;;;;;5125189;27;20020;-71
2023/07/19 02:08:26;;;;;;;4.88;2.45;;;18.70;99.90;;;;;;5130759;27;20599;-71
2023/07/19 02:10:51;;;;;;;6.78;2.72;;;18.60;99.90;;;;;;5117964;27;20408;-71
2023/07/19 02:13:17;;;;;;;8.50;2.50;;;18.70;99.90;;;;;;5134335;27;20015;-71
2023/07/19 02:15:44;;;;;;;7.32;2.88;;;18.70;99.90;;;;;;5133978;27;20027;-71
2023/07/19 02:18:10;;;;;;;7.85;2.63;;;18.70;99.90;;;;;;5114097;27;20019;-71
2023/07/19 02:20:36;;;;;;;8.32;2.97;;;18.70;99.90;;;;;;5127058;27;20093;-70
2023/07/19 02:23:01;;;;;;;6.53;2.70;;;18.70;99.90;;;;;;5130304;27;20065;-69
2023/07/19 02:25:27;;;;;;;7.32;2.72;;;18.70;99.90;;;;;;5116911;27;20039;-70
2023/07/19 02:27:53;;;;;;;7.25;2.95;;;18.70;99.90;;;;;;5133546;27;20023;-71
2023/07/19 02:30:18;;;;;;;5.75;2.63;;;18.70;99.90;;;;;;5133624;27;20030;-71
2023/07/19 02:32:44;;;;;;;6.80;3.00;;;18.60;99.90;;;;;;5133760;27;20490;-70
2023/07/19 02:35:09;;;;;;;5.90;2.72;;;18.60;99.90;;;;;;5132861;27;20019;-70
2023/07/19 02:37:35;;;;;;;7.40;2.85;;;18.50;99.90;;;;;;5115147;27;20015;-70
2023/07/19 02:40:01;;;;;;;9.23;2.50;;;18.50;99.90;;;;;;5121773;27;20029;-70
2023/07/19 02:42:26;;;;;;;10.73;2.80;;;18.50;99.90;;;;;;5133617;27;20015;-70
2023/07/19 02:44:52;;;;;;;5.90;2.70;;;18.50;99.90;;;;;;5127835;27;20376;-70
2023/07/19 02:47:18;;;;;;;8.52;2.78;;;18.50;99.90;;;;;;5129365;27;20046;-70
2023/07/19 02:49:43;;;;;;;8.73;2.90;;;18.60;99.90;;;;;;5133377;27;20240;-71
2023/07/19 02:52:09;;;;;;;6.80;3.10;;;18.60;99.90;;;;;;5133129;27;20047;-71
2023/07/19 02:54:35;;;;;;;6.20;2.67;;;18.60;99.90;;;;;;5133129;27;20031;-71
2023/07/19 02:57:01;;;;;;;6.05;2.50;;;18.60;99.90;;;;;;5133431;27;20381;-71
2023/07/19 02:59:26;;;;;;;5.50;2.90;;;18.60;99.90;;;;;;5132346;27;20068;-71
2023/07/19 03:01:52;;;;;;;8.55;3.10;;;18.60;99.90;;;;;;5123636;27;20027;-72
2023/07/19 03:04:17;;;;;;;6.13;2.60;;;18.60;99.90;;;;;;5132482;27;20099;-71
2023/07/19 03:06:43;;;;;;;8.38;2.70;;;18.60;99.90;;;;;;5128304;27;20036;-71
2023/07/19 03:09:11;;;;;;;9.02;2.55;;;18.60;99.90;;;;;;5130678;27;20043;-71
2023/07/19 03:11:36;;;;;;;6.80;3.03;;;18.60;99.90;;;;;;5123243;27;20023;-71
2023/07/19 03:14:02;;;;;;;7.97;2.80;;;18.70;99.90;;;;;;5127188;27;20341;-71
2023/07/19 03:16:28;;;;;;;6.32;2.72;;;18.70;99.90;;;;;;5114510;28;20072;-71
2023/07/19 03:18:54;;;;;;;4.95;2.60;;;18.60;99.90;;;;;;5126542;27;20793;-71
2023/07/19 03:21:20;;;;;;;6.35;2.70;;;18.60;99.90;;;;;;5132667;27;20039;-73
2023/07/19 03:23:46;;;;;;;5.68;2.78;;;18.60;99.90;;;;;;5114401;27;20029;-72
2023/07/19 03:26:11;;;;;;;7.47;2.85;;;18.60;99.90;;;;;;5130283;27;20464;-72
2023/07/19 03:28:37;;;;;;;7.07;3.00;;;18.60;99.90;;;;;;5132991;27;20023;-71
2023/07/19 03:31:03;;;;;;;6.97;2.58;;;18.60;99.90;;;;;;5130539;27;20029;-71
2023/07/19 03:33:28;;;;;;;4.90;2.78;;;18.60;99.90;;;;;;5125792;27;20019;-71
2023/07/19 03:35:54;;;;;;;8.85;3.05;;;18.60;99.90;;;;;;5132847;27;20033;-71
2023/07/19 03:38:20;;;;;;;4.95;2.88;;;18.60;99.90;;;;;;5132754;27;20086;-71
2023/07/19 03:40:46;;;;;;;5.88;2.92;;;18.60;99.90;;;;;;5124434;27;20031;-71
2023/07/19 03:43:12;;;;;;;4.28;2.70;;;18.60;99.90;;;;;;5109777;28;20031;-71
2023/07/19 03:45:39;;;;;;;9.60;3.00;;;18.60;99.90;;;;;;5122231;28;20023;-71
2023/07/19 03:48:05;;;;;;;7.78;3.22;;;18.60;99.90;;;;;;5132374;28;20384;-71
2023/07/19 03:50:31;;;;;;;7.97;3.28;;;18.60;99.90;;;;;;5129389;28;20027;-71
2023/07/19 03:52:56;;;;;;;6.72;3.30;;;18.60;99.90;;;;;;5126386;28;20760;-72
2023/07/19 03:55:23;;;;;;;5.30;3.38;;;18.60;99.90;;;;;;5114824;28;20123;-71
2023/07/19 03:57:48;;;;;;;9.02;3.50;;;18.50;99.90;;;;;;5132247;28;20012;-70
2023/07/19 04:00:14;;;;;;;10.48;4.13;;;18.50;99.90;;;;;;5130042;28;20029;-70
2023/07/19 04:02:40;;;;;;;10.15;3.80;;;18.50;99.90;;;;;;5122979;28;20020;-70
2023/07/19 04:05:06;;;;;;;9.35;3.60;;;18.50;99.90;;;;;;5114670;28;20575;-70
2023/07/19 04:07:32;;;;;;;8.93;3.78;;;18.40;99.90;;;;;;5132229;28;20022;-70
2023/07/19 04:09:57;;;;;;;9.35;3.72;;;18.40;99.90;;;;;;5132305;28;20028;-70
2023/07/19 04:12:23;;;;;;;9.95;3.90;;;18.40;99.90;;;;;;5132086;28;20034;-72
2023/07/19 04:14:48;;;;;;;8.70;3.70;;;18.40;99.90;;;;;;5124740;27;20051;-70
2023/07/19 04:17:14;;;;;;;7.10;3.65;;;18.40;99.90;;;;;;5105060;27;20019;-71
2023/07/19 04:19:40;;;;;;;8.63;3.78;;;18.50;99.90;;;;;;5136230;27;20016;-72
2023/07/19 04:22:05;;;;;;;8.68;3.30;;;18.50;99.90;;;;;;5131848;27;20012;-71
2023/07/19 04:24:31;;;;;;;10.98;3.70;;;18.50;99.90;;;;;;5134322;27;20019;-71
2023/07/19 04:26:57;;;;;;;5.57;3.78;;;18.50;99.90;;;;;;5136205;27;20080;-71
2023/07/19 04:29:22;;;;;;;7.35;3.72;;;18.50;99.90;;;;;;5131515;27;20047;-71
2023/07/19 04:31:48;;;;;;;8.27;4.40;;;18.50;99.90;;;;;;5135927;27;20064;-71
2023/07/19 04:34:14;;;;;;;9.80;3.88;;;18.50;99.90;;;;;;5136057;27;20031;-71
2023/07/19 04:36:41;;;;;;;6.93;4.03;;;18.50;99.90;;;;;;5105622;27;20038;-71
2023/07/19 04:39:06;;;;;;;10.70;3.80;;;18.50;99.90;;;;;;5136146;27;20059;-71
2023/07/19 04:41:32;;;;;;;10.85;4.60;;;18.50;99.90;;;;;;5135996;27;20055;-71
2023/07/19 04:43:58;;;;;;;8.88;4.03;;;18.50;99.90;;;;;;5106995;28;20020;-70
2023/07/19 04:46:24;;;;;;;11.65;4.60;;;18.60;99.90;;;;;;5134858;27;20055;-71
2023/07/19 04:48:52;;;;;;;7.75;4.63;;;18.50;99.90;;;;;;5129500;27;20068;-71
2023/07/19 04:51:18;;;;;;;8.43;3.92;;;18.60;99.90;;;;;;5126570;27;20036;-70
2023/07/19 04:53:44;;;;;;;11.15;4.55;;;18.60;99.90;;;;;;5135201;27;20019;-70
2023/07/19 04:56:09;;;;;;;7.97;4.22;;;18.60;99.90;;;;;;5132131;27;20507;-71
2023/07/19 04:58:35;;;;;;;7.70;3.92;;;18.60;99.90;;;;;;5132964;27;20467;-70
2023/07/19 05:01:08;;;;;;;11.57;4.47;;;18.60;99.90;;;;;;5126238;27;20039;-71
2023/07/19 05:03:34;;;;;;;8.98;4.35;;;18.70;99.90;;;;;;5133937;27;20033;-71
2023/07/19 05:06:00;;;;;;;8.80;4.60;;;18.70;99.90;;;;;;5122499;27;20012;-70
2023/07/19 05:08:26;;;;;;;7.25;4.47;;;18.70;99.90;;;;;;5122779;27;20046;-70
2023/07/19 05:10:52;;;;;;;12.25;4.45;;;18.70;99.90;;;;;;5118277;27;20433;-70
2023/07/19 05:13:17;;;;;;;9.95;4.78;;;18.70;99.90;;;;;;5133108;27;20098;-70
2023/07/19 05:15:43;;;;;;;8.93;4.88;;;18.80;99.90;;;;;;5132939;27;20023;-70
2023/07/19 05:18:08;;;;;;;10.02;4.57;;;18.80;99.90;;;;;;5135084;27;20041;-70
2023/07/19 05:20:34;;;;;;;9.60;4.75;;;18.80;99.90;;;;;;5130699;27;20027;-70
2023/07/19 05:23:00;;;;;;;9.00;4.35;;;18.80;99.90;;;;;;5129129;27;20556;-70
2023/07/19 05:25:26;;;;;;;9.95;4.85;;;18.80;99.90;;;;;;5127810;27;20102;-70
2023/07/19 05:27:51;;;;;;;12.00;4.80;;;18.80;99.90;;;;;;5131270;27;20491;-70
2023/07/19 05:30:17;;;;;;;12.65;4.47;;;18.90;99.90;;;;;;5132994;27;20019;-70
2023/07/19 05:32:43;;;;;;;9.55;4.78;;;18.90;99.90;;;;;;5133767;27;20019;-70
2023/07/19 05:35:08;;;;;;;13.25;4.22;;;18.90;99.90;;;;;;5132601;27;20456;-70
2023/07/19 05:37:34;;;;;;;9.77;4.45;;;18.90;99.90;;;;;;5120970;27;20028;-70
2023/07/19 05:39:59;;;;;;;8.88;4.50;;;18.90;99.90;;;;;;5124954;27;20027;-70
2023/07/19 05:42:25;;;;;;;12.32;5.07;;;19.00;99.90;;;;;;5132352;27;20023;-70
2023/07/19 05:44:51;;;;;;;9.35;4.50;;;19.00;99.90;;;;;;5130866;27;20118;-71
2023/07/19 05:47:17;;;;;;;11.73;4.72;;;19.00;99.90;;;;;;5126560;27;20034;-70
2023/07/19 05:49:42;;;;;;;11.27;4.85;;;19.10;99.90;;;;;;5133135;27;20039;-70
2023/07/19 05:52:08;;;;;;;11.75;4.35;;;19.10;99.90;;;;;;5133884;27;20047;-70
2023/07/19 05:54:34;;;;;;;9.55;4.43;;;19.10;99.90;;;;;;5127533;27;20066;-71
2023/07/19 05:56:59;;;;;;;13.15;4.82;;;19.10;99.90;;;;;;5129269;27;20030;-70
2023/07/19 05:59:25;;;;;;;8.52;4.47;;;19.20;99.90;;;;;;5130979;27;20424;-71
2023/07/19 06:01:50;;;;;;;9.48;4.90;;;19.20;99.90;;;;;;5122094;27;20026;-72
2023/07/19 06:04:16;;;;;;;10.65;4.63;;;19.20;99.90;;;;;;5125042;27;20024;-71
2023/07/19 06:06:42;;;;;;;11.93;5.00;;;19.20;99.90;;;;;;5132399;27;20039;-70
2023/07/19 06:09:08;;;;;;;11.52;4.82;;;19.20;99.90;;;;;;5131061;27;20019;-71
2023/07/19 06:11:35;;;;;;;12.25;5.05;;;19.20;99.90;;;;;;5129197;27;20019;-70
2023/07/19 06:14:02;;;;;;;11.63;4.63;;;19.30;99.90;;;;;;5134220;27;20673;-75
2023/07/19 06:16:27;;;;;;;9.80;4.35;;;19.30;99.90;;;;;;5132304;27;20019;-74
2023/07/19 06:18:53;;;;;;;8.35;3.35;;;19.40;99.90;;;;;;5133781;27;20027;-74
2023/07/19 06:21:19;;;;;;;9.77;3.30;;;19.50;99.90;;;;;;5135177;27;20061;-74
2023/07/19 06:23:44;;;;;;;8.32;3.45;;;19.60;99.90;;;;;;5135238;27;20026;-74
2023/07/19 06:26:10;;;;;;;10.85;3.65;;;19.60;99.90;;;;;;5134208;27;20336;-75
2023/07/19 06:28:36;;;;;;;7.38;3.45;;;19.70;99.90;;;;;;5134966;27;20353;-74
2023/07/19 06:31:02;;;;;;;10.80;3.65;;;19.70;99.90;;;;;;5134136;27;20132;-74
2023/07/19 06:33:29;;;;;;;10.00;3.70;;;19.80;99.90;;;;;;5134057;27;20019;-75
2023/07/19 06:35:55;;;;;;;13.60;3.58;;;19.90;99.90;;;;;;5131189;27;20104;-74
2023/07/19 06:38:20;;;;;;;9.90;3.72;;;19.90;99.90;;;;;;5126048;27;20019;-74
2023/07/19 06:40:46;;;;;;;8.20;3.20;;;19.90;99.90;;;;;;5134332;27;20038;-74
2023/07/19 06:43:12;;;;;;;8.30;3.42;;;19.90;99.90;;;;;;5134546;27;20074;-74
2023/07/19 06:45:37;;;;;;;10.45;3.10;;;20.00;99.90;;;;;;5127947;27;20114;-74
2023/07/19 06:48:03;;;;;;;10.88;3.20;;;20.00;99.90;;;;;;5130758;27;20027;-75
2023/07/19 06:50:29;;;;;;;10.20;3.67;;;20.00;99.90;;;;;;5125061;27;20023;-75
2023/07/19 06:52:54;;;;;;;9.15;3.17;;;20.00;99.90;;;;;;5133655;27;20440;-75
2023/07/19 06:55:20;;;;;;;12.25;3.10;;;20.10;99.90;;;;;;5126708;27;20034;-75
2023/07/19 06:57:46;;;;;;;9.98;2.75;;;20.20;99.90;;;;;;5124754;27;20020;-75
2023/07/19 07:00:12;;;;;;;8.93;3.15;;;20.20;99.90;;;;;;5131530;27;20054;-75
2023/07/19 07:02:38;;;;;;;7.40;3.00;;;20.30;99.90;;;;;;5125601;27;20019;-75
2023/07/19 07:05:04;;;;;;;8.80;3.25;;;20.40;99.90;;;;;;5132518;27;20048;-75
2023/07/19 07:07:29;;;;;;;9.23;2.88;;;20.50;99.90;;;;;;5113314;27;20023;-74
2023/07/19 07:09:57;;;;;;;9.73;2.92;;;20.60;99.90;;;;;;5127542;27;20024;-75
2023/07/19 07:12:23;;;;;;;7.80;2.60;;;20.60;99.90;;;;;;5126436;27;20614;-74
2023/07/19 07:14:49;;;;;;;7.25;2.50;;;20.70;99.90;;;;;;5123008;27;20031;-75
2023/07/19 07:17:15;;;;;;;7.70;2.45;;;20.80;99.90;;;;;;5130131;27;20021;-74
2023/07/19 07:19:40;;;;;;;8.27;2.63;;;20.70;99.90;;;;;;5132454;27;20067;-74
2023/07/19 07:22:06;;;;;;;6.47;2.90;;;20.70;99.90;;;;;;5128599;27;20027;-75
2023/07/19 07:24:31;;;;;;;6.88;2.30;;;20.70;99.90;;;;;;5131433;27;20023;-75
2023/07/19 07:26:57;;;;;;;11.05;2.60;;;20.70;99.90;;;;;;5132971;27;20354;-75
2023/07/19 07:29:23;;;;;;;6.95;2.50;;;20.80;99.90;;;;;;5122585;27;20027;-74
2023/07/19 07:31:48;;;;;;;7.75;2.88;;;20.90;99.90;;;;;;5129750;27;20011;-74
2023/07/19 07:34:14;;;;;;;9.93;3.10;;;21.00;99.90;;;;;;5132870;27;20083;-75
2023/07/19 07:36:40;;;;;;;7.93;3.25;;;21.00;99.90;;;;;;5132395;27;20464;-75
2023/07/19 07:39:06;;;;;;;7.30;2.85;;;21.00;99.90;;;;;;5119650;27;20020;-75
2023/07/19 07:41:32;;;;;;;8.80;3.45;;;21.10;99.90;;;;;;5132545;27;20023;-75
2023/07/19 07:43:59;;;;;;;8.82;3.63;;;21.10;99.90;;;;;;5132413;28;20038;-75
2023/07/19 07:46:25;;;;;;;10.80;4.18;;;21.20;99.90;;;;;;5132133;28;20030;-75
2023/07/19 07:48:51;;;;;;;8.05;3.70;;;21.20;99.90;;;;;;5132958;27;20050;-74
2023/07/19 07:51:16;;;;;;;12.02;3.63;;;21.20;99.90;;;;;;5136314;27;20581;-76
2023/07/19 07:53:42;;;;;;;8.07;3.35;;;21.20;99.90;;;;;;5129825;27;20022;-74
2023/07/19 07:56:08;;;;;;;11.15;3.22;;;21.10;99.90;;;;;;5133764;27;20027;-74
2023/07/19 07:58:33;;;;;;;7.93;2.88;;;21.10;99.90;;;;;;5132072;27;20067;-74
2023/07/19 08:01:00;;;;;;;13.75;3.72;;;21.00;99.90;;;;;;5136360;27;20029;-74
2023/07/19 08:03:25;;;;;;;6.00;2.72;;;21.00;99.90;;;;;;5137131;27;20046;-74
2023/07/19 08:05:53;;;;;;;7.72;3.10;;;21.10;99.90;;;;;;5116547;27;20417;-74
2023/07/19 08:08:18;;;;;;;10.50;2.80;;;21.10;99.90;;;;;;5133559;27;20034;-74
2023/07/19 08:10:44;;;;;;;9.73;3.20;;;21.20;99.90;;;;;;5100642;28;20468;-74
2023/07/19 08:13:11;;;;;;;7.10;2.70;;;21.20;99.90;;;;;;5131523;27;20024;-74
2023/07/19 08:15:37;;;;;;;8.50;2.60;;;21.20;99.90;;;;;;5127143;27;20023;-74
2023/07/19 08:18:02;;;;;;;14.10;2.92;;;21.20;99.90;;;;;;5135638;27;20845;-74
2023/07/19 08:20:29;;;;;;;9.80;3.03;;;21.20;99.90;;;;;;5136440;27;20019;-74
2023/07/19 08:22:55;;;;;;;10.90;2.97;;;21.20;99.90;;;;;;5135739;27;20043;-74
2023/07/19 08:25:21;;;;;;;8.32;3.00;;;21.30;99.90;;;;;;5117272;27;20378;-76
2023/07/19 08:27:47;;;;;;;8.95;2.80;;;21.40;99.90;;;;;;5135505;27;20026;-74
2023/07/19 08:30:16;;;;;;;9.68;3.03;;;21.50;99.90;;;;;;5124307;27;20363;-74
2023/07/19 08:32:46;;;;;;;8.15;2.72;;;21.60;99.90;;;;;;5135663;27;20098;-74
2023/07/19 08:35:14;;;;;;;9.55;2.97;;;21.70;99.90;;;;;;5136451;27;20023;-74
2023/07/19 08:37:40;;;;;;;9.65;3.20;;;21.70;99.90;;;;;;5130686;27;20039;-74
2023/07/19 08:40:07;;;;;;;9.60;3.17;;;21.70;99.90;;;;;;5135456;27;20023;-75
2023/07/19 08:42:33;;;;;;;8.02;2.90;;;21.80;99.90;;;;;;5135790;27;20401;-75
2023/07/19 08:44:59;;;;;;;13.98;3.10;;;21.80;99.90;;;;;;5135851;27;20038;-75
2023/07/19 08:47:25;;;;;;;10.73;3.00;;;21.90;99.90;;;;;;5125063;27;20072;-75
2023/07/19 08:49:51;;;;;;;9.88;3.17;;;22.00;99.90;;;;;;5135793;27;20037;-75
2023/07/19 08:52:17;;;;;;;12.35;3.40;;;22.00;99.90;;;;;;5135508;27;20043;-75
2023/07/19 08:54:43;;;;;;;8.73;2.97;;;22.10;99.90;;;;;;5135839;27;20055;-74
2023/07/19 08:57:09;;;;;;;10.02;2.92;;;22.10;99.90;;;;;;5132921;27;20460;-74
2023/07/19 08:59:34;;;;;;;15.70;3.88;;;22.20;99.90;;;;;;5129626;27;20015;-74
2023/07/19 09:02:00;;;;;;;12.10;3.15;;;22.20;99.90;;;;;;5134164;27;20483;-72
2023/07/19 09:04:26;;;;;;;9.43;3.30;;;22.20;99.90;;;;;;5136932;27;20475;-74
2023/07/19 09:06:52;;;;;;;12.40;3.25;;;22.20;99.90;;;;;;5136752;27;20031;-74
2023/07/19 09:09:18;;;;;;;7.82;2.83;;;22.10;99.90;;;;;;5136968;27;20026;-72
2023/07/19 09:11:49;;;;;;;11.00;3.05;;;22.00;99.90;;;;;;5131886;27;20034;-73
2023/07/19 09:14:15;;;;;;;12.77;3.22;;;21.90;99.90;;;;;;5125076;27;20027;-72
2023/07/19 09:16:40;;;;;;;12.38;3.10;;;21.90;99.90;;;;;;5126941;27;20042;-74
2023/07/19 09:19:08;;;;;;;7.15;3.05;;;21.90;99.90;;;;;;5136576;27;20015;-74
2023/07/19 09:21:44;;;;;;;9.73;2.95;;;21.90;99.90;;;;;;5132328;27;20294;-75
2023/07/19 09:24:11;;;;;;;9.23;3.00;;;21.80;99.90;;;;;;5136717;27;20019;-74
2023/07/19 09:26:50;;;;;;;9.32;2.90;;;21.80;99.90;;;;;;5117178;27;20618;-75
2023/07/19 09:29:20;;;;;;;9.38;3.03;;;21.90;99.90;;;;;;5136040;27;20029;-75
2023/07/19 09:32:00;;;;;;;6.57;2.60;;;21.90;99.90;;;;;;5135245;27;20019;-75
2023/07/19 09:34:26;;;;;;;8.70;2.75;;;21.90;99.90;;;;;;5117461;27;20543;-74
2023/07/19 09:36:53;;;;;;;9.73;2.80;;;21.80;99.90;;;;;;5135064;27;20390;-75
2023/07/19 09:39:19;;;;;;;10.98;2.97;;;21.80;99.90;;;;;;5136405;27;20452;-75
2023/07/19 09:41:48;;;;;;;9.48;3.17;;;21.80;99.90;;;;;;5136694;27;20027;-75
2023/07/19 09:44:17;;;;;;;11.27;2.97;;;21.80;99.90;;;;;;5131984;27;20126;-75
2023/07/19 09:46:44;;;;;;;7.80;2.60;;;21.80;99.90;;;;;;5135761;27;20103;-75
2023/07/19 09:49:10;;;;;;;7.55;2.67;;;21.70;99.90;;;;;;5137095;27;20063;-75
2023/07/19 09:51:40;;;;;;;10.70;2.60;;;21.80;99.90;;;;;;5137257;27;20050;-75
2023/07/19 09:54:09;;;;;;;12.05;2.83;;;21.80;99.90;;;;;;5135523;27;20352;-75
2023/07/19 09:56:35;;;;;;;6.80;2.90;;;21.80;99.90;;;;;;5132120;27;20456;-75
2023/07/19 09:59:03;;;;;;;8.13;2.80;;;21.80;99.90;;;;;;5130509;27;20037;-75
2023/07/19 10:01:29;;;;;;;8.02;2.90;;;21.80;99.90;;;;;;5130191;27;20201;-75
2023/07/19 10:03:57;;;;;;;6.00;2.72;;;21.70;99.90;;;;;;5132750;27;20055;-75
2023/07/19 10:06:29;;;;;;;10.40;2.95;;;21.80;99.90;;;;;;5135875;27;20023;-72
2023/07/19 10:09:23;;;;;;;10.10;3.05;;;21.80;99.90;;;;;;5133660;27;20023;-72
2023/07/19 10:11:51;;;;;;;9.13;3.03;;;21.80;99.90;;;;;;5127652;27;20023;-72
2023/07/19 10:14:27;;;;;;;7.82;2.92;;;21.80;99.90;;;;;;5131270;27;20019;-72
2023/07/19 10:17:00;;;;;;;6.07;2.60;;;21.70;99.90;;;;;;5134536;27;20058;-72
2023/07/19 10:19:26;;;;;;;4.53;2.30;;;21.70;99.90;;;;;;5134843;27;20047;-72
2023/07/19 10:22:07;;;;;;;5.13;2.40;;;21.70;99.90;;;;;;5134252;27;20023;-72
2023/07/19 10:24:35;;;;;;;8.20;2.25;;;21.70;99.90;;;;;;5129245;27;20024;-75
2023/07/19 10:27:05;;;;;;;6.18;2.17;;;21.80;99.90;;;;;;5111151;27;20391;-75
2023/07/19 10:29:47;;;;;;;4.68;2.30;;;21.90;99.90;;;;;;5131161;27;20655;-75
2023/07/19 10:32:13;;;;;;;7.25;2.40;;;22.00;99.90;;;;;;5134261;27;20026;-75
2023/07/19 10:34:43;;;;;;;7.97;2.20;;;22.00;99.90;;;;;;5133395;27;20023;-75
2023/07/19 10:37:08;;;;;;;7.35;2.10;;;22.10;99.90;;;;;;5133549;27;20460;-75
2023/07/19 10:39:34;;;;;;;8.55;2.13;;;22.20;99.90;;;;;;5133543;27;20094;-74
2023/07/19 10:42:00;;;;;;;7.50;2.30;;;22.20;99.90;;;;;;5121569;27;20015;-75
2023/07/19 10:44:26;;;;;;;6.13;2.25;;;22.30;99.90;;;;;;5119146;27;20091;-74
2023/07/19 10:46:56;;;;;;;7.47;2.30;;;22.50;99.90;;;;;;5117177;27;20066;-75
2023/07/19 10:49:23;;;;;;;6.38;1.88;;;22.70;99.90;;;;;;5126120;27;20452;-74
2023/07/19 10:51:57;;;;;;;10.23;2.28;;;23.00;99.90;;;;;;5131881;27;20081;-75
2023/07/19 10:54:23;;;;;;;7.63;1.92;;;23.20;99.90;;;;;;5125275;27;20047;-75
2023/07/19 10:56:51;;;;;;;7.93;1.85;;;23.30;99.90;;;;;;5122180;27;20083;-75
2023/07/19 10:59:17;;;;;;;7.80;2.25;;;23.30;99.90;;;;;;5133539;27;20475;-75
2023/07/19 11:01:43;;;;;;;7.40;2.30;;;23.40;99.90;;;;;;5133720;27;20019;-74
2023/07/19 11:04:09;;;;;;;6.03;2.05;;;23.40;99.90;;;;;;5133505;27;20152;-74
2023/07/19 11:06:37;;;;;;;7.35;2.08;;;23.50;99.90;;;;;;5131527;27;20500;-75
2023/07/19 11:09:05;;;;;;;4.75;2.00;;;23.40;99.90;;;;;;5133450;27;20145;-75
2023/07/19 11:11:36;;;;;;;6.18;2.40;;;23.30;99.90;;;;;;5114395;27;20586;-75
2023/07/19 11:14:02;;;;;;;6.88;2.17;;;23.30;99.90;;;;;;5133687;27;20016;-75
2023/07/19 11:16:29;;;;;;;7.18;2.05;;;23.10;99.90;;;;;;5133665;27;20027;-75
2023/07/19 11:18:54;;;;;;;5.50;2.00;;;23.00;99.90;;;;;;5130676;27;20104;-75
2023/07/19 11:21:25;;;;;;;3.85;1.90;;;23.00;99.90;;;;;;5112676;27;20405;-75
2023/07/19 11:23:51;;;;;;;6.47;2.03;;;23.00;99.90;;;;;;5132903;27;20467;-74
2023/07/19 11:26:18;;;;;;;3.88;1.80;;;23.10;99.90;;;;;;5119255;27;20091;-74
2023/07/19 11:28:45;;;;;;;5.82;2.20;;;23.40;99.90;;;;;;5132802;27;20055;-75
2023/07/19 11:31:38;;;;;;;5.53;1.80;;;23.50;99.90;;;;;;5122618;27;20018;-74
2023/07/19 11:34:12;;;;;;;6.55;2.00;;;23.50;99.90;;;;;;5133033;27;20017;-74
2023/07/19 11:36:43;;;;;;;5.45;1.60;;;23.60;99.90;;;;;;5126495;27;20019;-74
2023/07/19 11:39:22;;;;;;;6.10;1.80;;;23.50;99.90;;;;;;5125929;27;20039;-74
2023/07/19 11:41:48;;;;;;;5.80;1.90;;;23.60;99.90;;;;;;5121957;27;20020;-74
2023/07/19 11:44:15;;;;;;;5.38;1.77;;;23.80;99.90;;;;;;5132819;27;20110;-75
2023/07/19 11:46:40;;;;;;;6.85;1.70;;;23.90;99.90;;;;;;5128507;28;20027;-74
2023/07/19 11:49:09;;;;;;;5.55;1.65;;;23.90;99.90;;;;;;5132915;28;20525;-74
2023/07/19 11:51:36;;;;;;;5.45;1.73;;;23.90;99.90;;;;;;5132280;28;20040;-74
2023/07/19 11:54:01;;;;;;;3.95;1.67;;;23.80;99.90;;;;;;5132508;28;20016;-75
2023/07/19 11:56:29;;;;;;;4.93;1.75;;;23.80;99.90;;;;;;5125793;28;20024;-75
2023/07/19 11:58:55;;;;;;;6.40;1.73;;;23.80;99.90;;;;;;5119746;28;20033;-75
2023/07/19 12:01:21;;;;;;;5.38;1.70;;;23.90;99.90;;;;;;5120429;28;20127;-75
2023/07/19 12:03:47;;;;;;;5.93;1.58;;;24.00;99.90;;;;;;5124475;28;20051;-75
2023/07/19 12:06:14;;;;;;;4.03;1.40;;;24.10;99.90;;;;;;5127502;28;20041;-75
2023/07/19 12:08:41;;;;;;;5.32;1.42;;;24.30;99.90;;;;;;5132793;28;20041;-74
2023/07/19 12:11:07;;;;;;;6.82;1.55;;;24.40;99.90;;;;;;5132229;28;20046;-75
2023/07/19 12:13:34;;;;;;;5.75;1.92;;;24.30;99.80;;;;;;5132416;28;20033;-74
2023/07/19 12:16:00;;;;;;;3.35;1.40;;;24.20;99.60;;;;;;5131937;28;20094;-74
2023/07/19 12:18:26;;;;;;;5.03;1.27;;;24.20;99.70;;;;;;5130178;28;20119;-74
2023/07/19 12:20:52;;;;;;;4.57;1.70;;;24.10;99.60;;;;;;5129090;28;20049;-74
2023/07/19 12:23:17;;;;;;;5.38;1.48;;;24.20;99.60;;;;;;5127783;28;20098;-75
2023/07/19 12:25:43;;;;;;;4.13;1.52;;;24.40;99.50;;;;;;5129484;28;20084;-75
2023/07/19 12:28:09;;;;;;;2.78;1.48;;;24.60;98.90;;;;;;5129863;28;20038;-73
2023/07/19 12:30:35;;;;;;;5.47;1.65;;;24.70;98.40;;;;;;5130828;28;20039;-75
2023/07/19 12:33:01;;;;;;;6.32;1.55;;;24.80;97.80;;;;;;5131732;28;20106;-75
2023/07/19 12:35:26;;;;;;;6.45;1.50;;;24.70;97.40;;;;;;5133351;27;20110;-75
2023/07/19 12:37:52;;;;;;;4.60;1.70;;;24.60;97.50;;;;;;5132624;27;20019;-75
2023/07/19 12:40:18;;;;;;;5.90;1.80;;;24.60;97.20;;;;;;5136330;27;20019;-75
2023/07/19 12:42:43;;;;;;;4.07;1.30;;;24.60;96.80;;;;;;5131714;27;20686;-75